sensor_id;sensor_type;location;lat;lon;timestamp;P1;durP1;ratioP1;P2;durP2;ratioP2
71290;SDS011;59073;51.994;4.448;2022-10-31T00:00:14;1.05;;;1.05;;
71290;SDS011;59073;51.994;4.448;2022-10-31T00:02:40;0.96;;;0.95;;
71290;SDS011;59073;51.994;4.448;2022-10-31T00:05:05;1.00;;;0.99;;
71290;SDS011;59073;51.994;4.448;2022-10-31T00:07:31;1.09;;;1.08;;
71290;SDS011;59073;51.994;4.448;2022-10-31T00:09:56;1.17;;;1.16;;
71290;SDS011;59073;51.994;4.448;2022-10-31T00:12:21;1.15;;;1.14;;
71290;SDS011;59073;51.994;4.448;2022-10-31T00:14:47;1.12;;;1.11;;
71290;SDS011;59073;51.994;4.448;2022-10-31T00:17:12;1.26;;;1.25;;
71290;SDS011;59073;51.994;4.448;2022-10-31T00:19:38;1.17;;;1.16;;
71290;SDS011;59073;51.994;4.448;2022-10-31T00:22:03;0.98;;;0.98;;
71290;SDS011;59073;51.994;4.448;2022-10-31T00:24:28;1.29;;;1.29;;
71290;SDS011;59073;51.994;4.448;2022-10-31T00:26:54;1.20;;;1.20;;
71290;SDS011;59073;51.994;4.448;2022-10-31T00:29:19;1.37;;;1.37;;
71290;SDS011;59073;51.994;4.448;2022-10-31T00:31:45;1.20;;;1.19;;
71290;SDS011;59073;51.994;4.448;2022-10-31T00:34:12;0.98;;;0.97;;
71290;SDS011;59073;51.994;4.448;2022-10-31T00:36:37;1.20;;;1.20;;
71290;SDS011;59073;51.994;4.448;2022-10-31T00:39:03;1.01;;;1.01;;
71290;SDS011;59073;51.994;4.448;2022-10-31T00:41:28;1.00;;;0.99;;
71290;SDS011;59073;51.994;4.448;2022-10-31T00:43:54;1.25;;;1.25;;
71290;SDS011;59073;51.994;4.448;2022-10-31T00:46:20;1.15;;;1.15;;
71290;SDS011;59073;51.994;4.448;2022-10-31T00:48:45;1.16;;;1.16;;
71290;SDS011;59073;51.994;4.448;2022-10-31T00:51:11;1.15;;;1.15;;
71290;SDS011;59073;51.994;4.448;2022-10-31T00:53:36;1.19;;;1.19;;
71290;SDS011;59073;51.994;4.448;2022-10-31T00:56:02;1.24;;;1.24;;
71290;SDS011;59073;51.994;4.448;2022-10-31T00:58:27;1.29;;;1.29;;
71290;SDS011;59073;51.994;4.448;2022-10-31T01:00:53;1.22;;;1.22;;
71290;SDS011;59073;51.994;4.448;2022-10-31T01:03:22;1.34;;;1.34;;
71290;SDS011;59073;51.994;4.448;2022-10-31T01:05:55;1.49;;;1.49;;
71290;SDS011;59073;51.994;4.448;2022-10-31T01:08:26;1.45;;;1.45;;
71290;SDS011;59073;51.994;4.448;2022-10-31T01:11:26;1.35;;;1.35;;
71290;SDS011;59073;51.994;4.448;2022-10-31T01:13:46;1.37;;;1.37;;
71290;SDS011;59073;51.994;4.448;2022-10-31T01:16:13;1.31;;;1.31;;
71290;SDS011;59073;51.994;4.448;2022-10-31T01:18:42;1.32;;;1.32;;
71290;SDS011;59073;51.994;4.448;2022-10-31T01:21:10;1.33;;;1.33;;
71290;SDS011;59073;51.994;4.448;2022-10-31T01:23:36;1.48;;;1.48;;
71290;SDS011;59073;51.994;4.448;2022-10-31T01:26:03;1.42;;;1.42;;
71290;SDS011;59073;51.994;4.448;2022-10-31T01:28:35;1.64;;;1.63;;
71290;SDS011;59073;51.994;4.448;2022-10-31T01:31:03;1.70;;;1.70;;
71290;SDS011;59073;51.994;4.448;2022-10-31T01:33:30;1.65;;;1.65;;
71290;SDS011;59073;51.994;4.448;2022-10-31T01:35:55;1.57;;;1.57;;
71290;SDS011;59073;51.994;4.448;2022-10-31T01:38:21;1.43;;;1.43;;
71290;SDS011;59073;51.994;4.448;2022-10-31T01:40:48;1.51;;;1.51;;
71290;SDS011;59073;51.994;4.448;2022-10-31T01:43:13;1.66;;;1.66;;
71290;SDS011;59073;51.994;4.448;2022-10-31T01:45:40;1.78;;;1.78;;
71290;SDS011;59073;51.994;4.448;2022-10-31T01:48:11;1.70;;;1.70;;
71290;SDS011;59073;51.994;4.448;2022-10-31T01:50:40;1.87;;;1.87;;
71290;SDS011;59073;51.994;4.448;2022-10-31T01:53:10;1.73;;;1.73;;
71290;SDS011;59073;51.994;4.448;2022-10-31T01:55:41;1.96;;;1.96;;
71290;SDS011;59073;51.994;4.448;2022-10-31T01:58:12;2.07;;;2.07;;
71290;SDS011;59073;51.994;4.448;2022-10-31T02:00:45;2.01;;;2.01;;
71290;SDS011;59073;51.994;4.448;2022-10-31T02:03:15;2.11;;;2.11;;
71290;SDS011;59073;51.994;4.448;2022-10-31T02:05:43;2.15;;;2.15;;
71290;SDS011;59073;51.994;4.448;2022-10-31T02:08:16;2.07;;;2.07;;
71290;SDS011;59073;51.994;4.448;2022-10-31T02:10:50;2.21;;;2.21;;
71290;SDS011;59073;51.994;4.448;2022-10-31T02:13:16;2.23;;;2.23;;
71290;SDS011;59073;51.994;4.448;2022-10-31T02:15:44;2.38;;;2.38;;
71290;SDS011;59073;51.994;4.448;2022-10-31T02:18:17;2.21;;;2.21;;
71290;SDS011;59073;51.994;4.448;2022-10-31T02:20:57;2.26;;;2.26;;
71290;SDS011;59073;51.994;4.448;2022-10-31T02:29:35;2.19;;;2.19;;
71290;SDS011;59073;51.994;4.448;2022-10-31T02:35:14;2.35;;;2.35;;
71290;SDS011;59073;51.994;4.448;2022-10-31T02:37:57;2.22;;;2.22;;
71290;SDS011;59073;51.994;4.448;2022-10-31T02:46:27;2.11;;;2.10;;
71290;SDS011;59073;51.994;4.448;2022-10-31T02:49:30;2.00;;;1.99;;
71290;SDS011;59073;51.994;4.448;2022-10-31T02:52:16;2.00;;;1.99;;
71290;SDS011;59073;51.994;4.448;2022-10-31T02:54:43;1.68;;;1.68;;
71290;SDS011;59073;51.994;4.448;2022-10-31T02:57:11;1.87;;;1.87;;
71290;SDS011;59073;51.994;4.448;2022-10-31T02:59:40;1.83;;;1.83;;
71290;SDS011;59073;51.994;4.448;2022-10-31T03:02:16;2.55;;;2.55;;
71290;SDS011;59073;51.994;4.448;2022-10-31T03:04:56;2.32;;;2.32;;
71290;SDS011;59073;51.994;4.448;2022-10-31T03:10:11;2.44;;;2.44;;
71290;SDS011;59073;51.994;4.448;2022-10-31T03:15:20;2.76;;;2.75;;
71290;SDS011;59073;51.994;4.448;2022-10-31T03:18:04;3.67;;;3.67;;
71290;SDS011;59073;51.994;4.448;2022-10-31T03:20:38;3.75;;;3.75;;
71290;SDS011;59073;51.994;4.448;2022-10-31T03:23:10;4.08;;;4.08;;
71290;SDS011;59073;51.994;4.448;2022-10-31T03:25:39;4.39;;;4.39;;
71290;SDS011;59073;51.994;4.448;2022-10-31T03:28:08;4.55;;;4.55;;
71290;SDS011;59073;51.994;4.448;2022-10-31T03:30:38;4.28;;;4.28;;
71290;SDS011;59073;51.994;4.448;2022-10-31T03:33:09;4.05;;;4.05;;
71290;SDS011;59073;51.994;4.448;2022-10-31T03:35:41;4.71;;;4.71;;
71290;SDS011;59073;51.994;4.448;2022-10-31T03:38:11;4.65;;;4.65;;
71290;SDS011;59073;51.994;4.448;2022-10-31T03:40:40;4.60;;;4.60;;
71290;SDS011;59073;51.994;4.448;2022-10-31T03:43:12;4.83;;;4.83;;
71290;SDS011;59073;51.994;4.448;2022-10-31T03:45:44;5.20;;;5.20;;
71290;SDS011;59073;51.994;4.448;2022-10-31T03:48:12;4.93;;;4.93;;
71290;SDS011;59073;51.994;4.448;2022-10-31T03:50:47;5.48;;;5.48;;
71290;SDS011;59073;51.994;4.448;2022-10-31T03:53:22;5.44;;;5.44;;
71290;SDS011;59073;51.994;4.448;2022-10-31T03:55:59;5.80;;;5.79;;
71290;SDS011;59073;51.994;4.448;2022-10-31T03:58:33;5.79;;;5.78;;
71290;SDS011;59073;51.994;4.448;2022-10-31T04:01:06;5.70;;;5.68;;
71290;SDS011;59073;51.994;4.448;2022-10-31T04:03:37;5.83;;;5.83;;
71290;SDS011;59073;51.994;4.448;2022-10-31T04:06:10;5.90;;;5.90;;
71290;SDS011;59073;51.994;4.448;2022-10-31T04:08:43;5.60;;;5.60;;
71290;SDS011;59073;51.994;4.448;2022-10-31T04:11:19;6.09;;;6.09;;
71290;SDS011;59073;51.994;4.448;2022-10-31T04:13:49;6.11;;;6.11;;
71290;SDS011;59073;51.994;4.448;2022-10-31T04:16:18;5.67;;;5.67;;
71290;SDS011;59073;51.994;4.448;2022-10-31T04:18:46;5.92;;;5.92;;
71290;SDS011;59073;51.994;4.448;2022-10-31T04:21:12;5.31;;;5.31;;
71290;SDS011;59073;51.994;4.448;2022-10-31T04:23:37;5.80;;;5.80;;
71290;SDS011;59073;51.994;4.448;2022-10-31T04:26:03;5.55;;;5.55;;
71290;SDS011;59073;51.994;4.448;2022-10-31T04:28:29;5.36;;;5.36;;
71290;SDS011;59073;51.994;4.448;2022-10-31T04:30:54;5.30;;;5.30;;
71290;SDS011;59073;51.994;4.448;2022-10-31T04:33:20;5.14;;;5.14;;
71290;SDS011;59073;51.994;4.448;2022-10-31T04:35:45;5.18;;;5.18;;
71290;SDS011;59073;51.994;4.448;2022-10-31T04:38:11;5.13;;;5.13;;
71290;SDS011;59073;51.994;4.448;2022-10-31T04:40:37;5.47;;;5.47;;
71290;SDS011;59073;51.994;4.448;2022-10-31T04:43:02;5.40;;;5.40;;
71290;SDS011;59073;51.994;4.448;2022-10-31T04:45:28;5.43;;;5.43;;
71290;SDS011;59073;51.994;4.448;2022-10-31T04:47:53;5.28;;;5.28;;
71290;SDS011;59073;51.994;4.448;2022-10-31T04:50:18;4.98;;;4.98;;
71290;SDS011;59073;51.994;4.448;2022-10-31T04:52:45;5.78;;;5.78;;
71290;SDS011;59073;51.994;4.448;2022-10-31T04:55:11;6.02;;;6.02;;
71290;SDS011;59073;51.994;4.448;2022-10-31T04:57:41;5.88;;;5.86;;
71290;SDS011;59073;51.994;4.448;2022-10-31T05:00:11;6.09;;;6.09;;
71290;SDS011;59073;51.994;4.448;2022-10-31T05:02:49;6.07;;;6.07;;
71290;SDS011;59073;51.994;4.448;2022-10-31T05:05:17;5.96;;;5.96;;
71290;SDS011;59073;51.994;4.448;2022-10-31T05:07:45;6.01;;;6.01;;
71290;SDS011;59073;51.994;4.448;2022-10-31T05:10:13;5.74;;;5.74;;
71290;SDS011;59073;51.994;4.448;2022-10-31T05:15:13;6.37;;;6.37;;
71290;SDS011;59073;51.994;4.448;2022-10-31T05:17:38;6.09;;;6.09;;
71290;SDS011;59073;51.994;4.448;2022-10-31T05:20:04;6.18;;;6.18;;
71290;SDS011;59073;51.994;4.448;2022-10-31T05:22:30;5.91;;;5.91;;
71290;SDS011;59073;51.994;4.448;2022-10-31T05:24:55;5.78;;;5.78;;
71290;SDS011;59073;51.994;4.448;2022-10-31T05:27:21;6.68;;;6.68;;
71290;SDS011;59073;51.994;4.448;2022-10-31T05:29:46;5.80;;;5.80;;
71290;SDS011;59073;51.994;4.448;2022-10-31T05:32:12;5.76;;;5.76;;
71290;SDS011;59073;51.994;4.448;2022-10-31T05:34:40;5.68;;;5.68;;
71290;SDS011;59073;51.994;4.448;2022-10-31T05:37:05;5.54;;;5.54;;
71290;SDS011;59073;51.994;4.448;2022-10-31T05:39:31;6.12;;;6.12;;
71290;SDS011;59073;51.994;4.448;2022-10-31T05:41:57;6.21;;;6.21;;
71290;SDS011;59073;51.994;4.448;2022-10-31T05:44:22;5.97;;;5.97;;
71290;SDS011;59073;51.994;4.448;2022-10-31T05:46:47;5.48;;;5.48;;
71290;SDS011;59073;51.994;4.448;2022-10-31T05:49:13;5.78;;;5.78;;
71290;SDS011;59073;51.994;4.448;2022-10-31T05:51:42;5.76;;;5.76;;
71290;SDS011;59073;51.994;4.448;2022-10-31T05:54:07;5.20;;;5.20;;
71290;SDS011;59073;51.994;4.448;2022-10-31T05:56:33;5.59;;;5.59;;
71290;SDS011;59073;51.994;4.448;2022-10-31T05:58:58;5.84;;;5.84;;
71290;SDS011;59073;51.994;4.448;2022-10-31T06:01:24;6.51;;;6.51;;
71290;SDS011;59073;51.994;4.448;2022-10-31T06:03:49;6.50;;;6.50;;
71290;SDS011;59073;51.994;4.448;2022-10-31T06:06:14;7.00;;;7.00;;
71290;SDS011;59073;51.994;4.448;2022-10-31T06:08:41;6.78;;;6.78;;
71290;SDS011;59073;51.994;4.448;2022-10-31T06:11:06;7.18;;;7.18;;
71290;SDS011;59073;51.994;4.448;2022-10-31T06:13:32;7.28;;;7.28;;
71290;SDS011;59073;51.994;4.448;2022-10-31T06:15:57;7.44;;;7.44;;
71290;SDS011;59073;51.994;4.448;2022-10-31T06:18:22;7.37;;;7.37;;
71290;SDS011;59073;51.994;4.448;2022-10-31T06:20:48;7.84;;;7.83;;
71290;SDS011;59073;51.994;4.448;2022-10-31T06:23:14;7.92;;;7.92;;
71290;SDS011;59073;51.994;4.448;2022-10-31T06:25:40;7.70;;;7.70;;
71290;SDS011;59073;51.994;4.448;2022-10-31T06:33:22;7.87;;;7.82;;
71290;SDS011;59073;51.994;4.448;2022-10-31T06:36:14;8.05;;;8.04;;
71290;SDS011;59073;51.994;4.448;2022-10-31T06:42:26;7.98;;;7.98;;
71290;SDS011;59073;51.994;4.448;2022-10-31T06:48:18;8.28;;;8.25;;
71290;SDS011;59073;51.994;4.448;2022-10-31T06:54:08;7.82;;;7.82;;
71290;SDS011;59073;51.994;4.448;2022-10-31T07:03:39;8.16;;;8.16;;
71290;SDS011;59073;51.994;4.448;2022-10-31T07:06:08;8.15;;;8.15;;
71290;SDS011;59073;51.994;4.448;2022-10-31T08:18:13;10.63;;;10.60;;
71290;SDS011;59073;51.994;4.448;2022-10-31T13:34:22;13.79;;;13.72;;
71290;SDS011;59073;51.994;4.448;2022-10-31T13:39:45;13.88;;;13.83;;
71290;SDS011;59073;51.994;4.448;2022-10-31T13:45:46;14.10;;;14.04;;
71290;SDS011;59073;51.994;4.448;2022-10-31T13:51:00;13.89;;;13.76;;
71290;SDS011;59073;51.994;4.448;2022-10-31T13:53:36;14.33;;;14.26;;
71290;SDS011;59073;51.994;4.448;2022-10-31T13:56:20;14.44;;;14.40;;
71290;SDS011;59073;51.994;4.448;2022-10-31T13:59:01;14.81;;;14.69;;
71290;SDS011;59073;51.994;4.448;2022-10-31T14:01:55;15.56;;;15.36;;
71290;SDS011;59073;51.994;4.448;2022-10-31T14:07:56;15.89;;;15.67;;
71290;SDS011;59073;51.994;4.448;2022-10-31T14:52:37;16.88;;;16.80;;
71290;SDS011;59073;51.994;4.448;2022-10-31T15:12:00;16.98;;;16.95;;
71290;SDS011;59073;51.994;4.448;2022-10-31T15:14:41;17.88;;;17.78;;
71290;SDS011;59073;51.994;4.448;2022-10-31T15:17:08;17.69;;;17.59;;
71290;SDS011;59073;51.994;4.448;2022-10-31T15:19:37;18.43;;;18.40;;
71290;SDS011;59073;51.994;4.448;2022-10-31T15:22:07;17.32;;;17.21;;
71290;SDS011;59073;51.994;4.448;2022-10-31T15:24:42;17.70;;;17.59;;
71290;SDS011;59073;51.994;4.448;2022-10-31T15:27:13;16.96;;;16.89;;
71290;SDS011;59073;51.994;4.448;2022-10-31T15:29:48;17.81;;;17.68;;
71290;SDS011;59073;51.994;4.448;2022-10-31T15:32:36;17.44;;;17.33;;
71290;SDS011;59073;51.994;4.448;2022-10-31T15:35:24;18.08;;;17.97;;
71290;SDS011;59073;51.994;4.448;2022-10-31T15:37:54;17.44;;;17.37;;
71290;SDS011;59073;51.994;4.448;2022-10-31T15:40:22;18.45;;;18.34;;
71290;SDS011;59073;51.994;4.448;2022-10-31T15:45:27;17.12;;;16.98;;
71290;SDS011;59073;51.994;4.448;2022-10-31T15:47:56;16.88;;;16.81;;
71290;SDS011;59073;51.994;4.448;2022-10-31T15:50:46;17.23;;;17.16;;
71290;SDS011;59073;51.994;4.448;2022-10-31T15:53:23;17.69;;;17.54;;
71290;SDS011;59073;51.994;4.448;2022-10-31T15:55:56;17.35;;;16.98;;
71290;SDS011;59073;51.994;4.448;2022-10-31T15:58:29;16.25;;;16.14;;
71290;SDS011;59073;51.994;4.448;2022-10-31T16:01:06;16.91;;;16.80;;
71290;SDS011;59073;51.994;4.448;2022-10-31T16:04:02;16.36;;;16.22;;
71290;SDS011;59073;51.994;4.448;2022-10-31T16:06:56;17.02;;;16.94;;
71290;SDS011;59073;51.994;4.448;2022-10-31T16:09:25;16.30;;;16.21;;
71290;SDS011;59073;51.994;4.448;2022-10-31T16:11:51;15.99;;;15.91;;
71290;SDS011;59073;51.994;4.448;2022-10-31T16:14:23;16.70;;;16.58;;
71290;SDS011;59073;51.994;4.448;2022-10-31T16:16:56;15.65;;;15.58;;
71290;SDS011;59073;51.994;4.448;2022-10-31T16:19:36;17.13;;;16.88;;
71290;SDS011;59073;51.994;4.448;2022-10-31T16:22:22;16.00;;;15.96;;
71290;SDS011;59073;51.994;4.448;2022-10-31T16:27:40;16.81;;;16.53;;
71290;SDS011;59073;51.994;4.448;2022-10-31T16:32:53;15.95;;;15.74;;
71290;SDS011;59073;51.994;4.448;2022-10-31T16:35:24;16.06;;;15.92;;
71290;SDS011;59073;51.994;4.448;2022-10-31T16:37:58;16.37;;;16.33;;
71290;SDS011;59073;51.994;4.448;2022-10-31T16:40:24;16.70;;;16.61;;
71290;SDS011;59073;51.994;4.448;2022-10-31T16:42:50;16.36;;;16.28;;
71290;SDS011;59073;51.994;4.448;2022-10-31T16:45:18;16.58;;;16.48;;
71290;SDS011;59073;51.994;4.448;2022-10-31T16:47:47;15.43;;;15.36;;
71290;SDS011;59073;51.994;4.448;2022-10-31T16:50:14;15.97;;;15.84;;
71290;SDS011;59073;51.994;4.448;2022-10-31T16:52:48;15.95;;;15.80;;
71290;SDS011;59073;51.994;4.448;2022-10-31T16:55:14;15.12;;;15.08;;
71290;SDS011;59073;51.994;4.448;2022-10-31T16:57:45;14.99;;;14.90;;
71290;SDS011;59073;51.994;4.448;2022-10-31T17:00:16;14.64;;;14.55;;
71290;SDS011;59073;51.994;4.448;2022-10-31T17:02:44;14.73;;;14.70;;
71290;SDS011;59073;51.994;4.448;2022-10-31T17:05:12;14.19;;;14.15;;
71290;SDS011;59073;51.994;4.448;2022-10-31T17:07:39;14.34;;;14.28;;
71290;SDS011;59073;51.994;4.448;2022-10-31T17:10:06;13.90;;;13.89;;
71290;SDS011;59073;51.994;4.448;2022-10-31T17:12:32;13.59;;;13.58;;
71290;SDS011;59073;51.994;4.448;2022-10-31T17:14:58;13.36;;;13.34;;
71290;SDS011;59073;51.994;4.448;2022-10-31T17:17:24;13.08;;;13.03;;
71290;SDS011;59073;51.994;4.448;2022-10-31T17:19:50;13.01;;;12.98;;
71290;SDS011;59073;51.994;4.448;2022-10-31T17:22:15;12.08;;;12.08;;
71290;SDS011;59073;51.994;4.448;2022-10-31T17:24:41;12.77;;;12.75;;
71290;SDS011;59073;51.994;4.448;2022-10-31T17:27:06;13.04;;;12.97;;
71290;SDS011;59073;51.994;4.448;2022-10-31T17:29:32;12.69;;;12.66;;
71290;SDS011;59073;51.994;4.448;2022-10-31T17:31:57;11.91;;;11.86;;
71290;SDS011;59073;51.994;4.448;2022-10-31T17:34:23;12.15;;;12.09;;
71290;SDS011;59073;51.994;4.448;2022-10-31T17:36:50;11.89;;;11.88;;
71290;SDS011;59073;51.994;4.448;2022-10-31T17:39:17;12.43;;;12.41;;
71290;SDS011;59073;51.994;4.448;2022-10-31T17:41:43;12.14;;;12.12;;
71290;SDS011;59073;51.994;4.448;2022-10-31T17:44:09;11.59;;;11.57;;
71290;SDS011;59073;51.994;4.448;2022-10-31T17:46:37;11.50;;;11.50;;
71290;SDS011;59073;51.994;4.448;2022-10-31T17:49:03;12.20;;;12.19;;
71290;SDS011;59073;51.994;4.448;2022-10-31T17:51:33;11.56;;;11.50;;
71290;SDS011;59073;51.994;4.448;2022-10-31T17:53:59;11.52;;;11.51;;
71290;SDS011;59073;51.994;4.448;2022-10-31T17:56:24;11.96;;;11.96;;
71290;SDS011;59073;51.994;4.448;2022-10-31T17:58:50;11.40;;;11.38;;
71290;SDS011;59073;51.994;4.448;2022-10-31T18:01:16;11.41;;;11.41;;
71290;SDS011;59073;51.994;4.448;2022-10-31T18:03:42;11.23;;;11.21;;
71290;SDS011;59073;51.994;4.448;2022-10-31T18:06:09;11.41;;;11.36;;
71290;SDS011;59073;51.994;4.448;2022-10-31T18:08:36;11.30;;;11.21;;
71290;SDS011;59073;51.994;4.448;2022-10-31T18:11:06;10.83;;;10.81;;
71290;SDS011;59073;51.994;4.448;2022-10-31T18:13:34;11.52;;;11.51;;
71290;SDS011;59073;51.994;4.448;2022-10-31T18:16:00;11.46;;;11.46;;
71290;SDS011;59073;51.994;4.448;2022-10-31T18:18:26;11.54;;;11.52;;
71290;SDS011;59073;51.994;4.448;2022-10-31T18:20:51;11.37;;;11.36;;
71290;SDS011;59073;51.994;4.448;2022-10-31T18:23:16;11.97;;;11.96;;
71290;SDS011;59073;51.994;4.448;2022-10-31T18:25:42;12.32;;;12.26;;
71290;SDS011;59073;51.994;4.448;2022-10-31T18:28:08;11.74;;;11.66;;
71290;SDS011;59073;51.994;4.448;2022-10-31T18:30:37;11.35;;;11.33;;
71290;SDS011;59073;51.994;4.448;2022-10-31T18:33:04;11.44;;;11.33;;
71290;SDS011;59073;51.994;4.448;2022-10-31T18:35:30;11.19;;;11.12;;
71290;SDS011;59073;51.994;4.448;2022-10-31T18:37:55;11.77;;;11.72;;
71290;SDS011;59073;51.994;4.448;2022-10-31T18:40:21;11.56;;;11.54;;
71290;SDS011;59073;51.994;4.448;2022-10-31T18:42:46;11.35;;;11.34;;
71290;SDS011;59073;51.994;4.448;2022-10-31T18:45:12;10.68;;;10.66;;
71290;SDS011;59073;51.994;4.448;2022-10-31T18:47:37;10.69;;;10.66;;
71290;SDS011;59073;51.994;4.448;2022-10-31T18:50:02;9.97;;;9.94;;
71290;SDS011;59073;51.994;4.448;2022-10-31T18:52:28;10.48;;;10.47;;
71290;SDS011;59073;51.994;4.448;2022-10-31T18:54:54;10.26;;;10.26;;
71290;SDS011;59073;51.994;4.448;2022-10-31T18:57:19;10.36;;;10.36;;
71290;SDS011;59073;51.994;4.448;2022-10-31T18:59:45;10.42;;;10.42;;
71290;SDS011;59073;51.994;4.448;2022-10-31T19:02:13;9.94;;;9.94;;
71290;SDS011;59073;51.994;4.448;2022-10-31T19:04:42;10.03;;;10.03;;
71290;SDS011;59073;51.994;4.448;2022-10-31T19:07:07;9.95;;;9.94;;
71290;SDS011;59073;51.994;4.448;2022-10-31T19:09:33;9.88;;;9.88;;
71290;SDS011;59073;51.994;4.448;2022-10-31T19:11:59;9.88;;;9.88;;
71290;SDS011;59073;51.994;4.448;2022-10-31T19:14:25;9.32;;;9.32;;
71290;SDS011;59073;51.994;4.448;2022-10-31T19:16:50;9.85;;;9.85;;
71290;SDS011;59073;51.994;4.448;2022-10-31T19:19:15;9.78;;;9.69;;
71290;SDS011;59073;51.994;4.448;2022-10-31T19:21:41;9.80;;;9.74;;
71290;SDS011;59073;51.994;4.448;2022-10-31T19:24:07;9.36;;;9.34;;
71290;SDS011;59073;51.994;4.448;2022-10-31T19:26:33;9.23;;;9.22;;
71290;SDS011;59073;51.994;4.448;2022-10-31T19:28:59;9.12;;;9.08;;
71290;SDS011;59073;51.994;4.448;2022-10-31T19:31:24;8.70;;;8.63;;
71290;SDS011;59073;51.994;4.448;2022-10-31T19:33:50;9.03;;;8.97;;
71290;SDS011;59073;51.994;4.448;2022-10-31T19:36:16;8.67;;;8.66;;
71290;SDS011;59073;51.994;4.448;2022-10-31T19:38:44;8.58;;;8.58;;
71290;SDS011;59073;51.994;4.448;2022-10-31T19:41:13;8.39;;;8.39;;
71290;SDS011;59073;51.994;4.448;2022-10-31T19:43:41;9.04;;;9.02;;
71290;SDS011;59073;51.994;4.448;2022-10-31T19:46:06;8.06;;;8.05;;
71290;SDS011;59073;51.994;4.448;2022-10-31T19:48:35;8.23;;;8.21;;
71290;SDS011;59073;51.994;4.448;2022-10-31T19:51:04;7.97;;;7.95;;
71290;SDS011;59073;51.994;4.448;2022-10-31T19:53:31;8.21;;;8.21;;
71290;SDS011;59073;51.994;4.448;2022-10-31T19:55:58;8.15;;;8.15;;
71290;SDS011;59073;51.994;4.448;2022-10-31T19:58:23;8.37;;;8.37;;
71290;SDS011;59073;51.994;4.448;2022-10-31T20:00:50;8.29;;;8.29;;
71290;SDS011;59073;51.994;4.448;2022-10-31T20:03:16;7.84;;;7.82;;
71290;SDS011;59073;51.994;4.448;2022-10-31T20:05:42;7.29;;;7.29;;
71290;SDS011;59073;51.994;4.448;2022-10-31T20:08:16;7.33;;;7.33;;
71290;SDS011;59073;51.994;4.448;2022-10-31T20:10:54;7.17;;;7.17;;
71290;SDS011;59073;51.994;4.448;2022-10-31T20:13:21;7.02;;;7.02;;
71290;SDS011;59073;51.994;4.448;2022-10-31T20:15:48;7.40;;;7.40;;
71290;SDS011;59073;51.994;4.448;2022-10-31T20:18:14;6.91;;;6.91;;
71290;SDS011;59073;51.994;4.448;2022-10-31T20:20:39;6.88;;;6.88;;
71290;SDS011;59073;51.994;4.448;2022-10-31T20:23:05;7.08;;;7.08;;
71290;SDS011;59073;51.994;4.448;2022-10-31T20:25:30;6.83;;;6.83;;
71290;SDS011;59073;51.994;4.448;2022-10-31T20:27:57;6.76;;;6.76;;
71290;SDS011;59073;51.994;4.448;2022-10-31T20:30:23;6.14;;;6.14;;
71290;SDS011;59073;51.994;4.448;2022-10-31T20:32:53;6.45;;;6.45;;
71290;SDS011;59073;51.994;4.448;2022-10-31T20:35:18;6.08;;;6.06;;
71290;SDS011;59073;51.994;4.448;2022-10-31T20:37:44;6.13;;;6.13;;
71290;SDS011;59073;51.994;4.448;2022-10-31T20:40:09;6.10;;;6.10;;
71290;SDS011;59073;51.994;4.448;2022-10-31T20:42:35;5.94;;;5.93;;
71290;SDS011;59073;51.994;4.448;2022-10-31T20:45:01;6.12;;;6.12;;
71290;SDS011;59073;51.994;4.448;2022-10-31T20:47:27;5.83;;;5.83;;
71290;SDS011;59073;51.994;4.448;2022-10-31T20:49:53;5.74;;;5.74;;
71290;SDS011;59073;51.994;4.448;2022-10-31T20:52:18;6.00;;;6.00;;
71290;SDS011;59073;51.994;4.448;2022-10-31T20:54:43;5.93;;;5.93;;
71290;SDS011;59073;51.994;4.448;2022-10-31T20:57:09;5.23;;;5.23;;
71290;SDS011;59073;51.994;4.448;2022-10-31T20:59:34;5.52;;;5.52;;
71290;SDS011;59073;51.994;4.448;2022-10-31T21:02:00;5.32;;;5.32;;
71290;SDS011;59073;51.994;4.448;2022-10-31T21:04:25;5.11;;;5.11;;
71290;SDS011;59073;51.994;4.448;2022-10-31T21:06:53;5.34;;;5.34;;
71290;SDS011;59073;51.994;4.448;2022-10-31T21:09:18;5.02;;;5.01;;
71290;SDS011;59073;51.994;4.448;2022-10-31T21:11:44;4.74;;;4.74;;
71290;SDS011;59073;51.994;4.448;2022-10-31T21:14:09;5.20;;;5.20;;
71290;SDS011;59073;51.994;4.448;2022-10-31T21:16:35;5.03;;;5.03;;
71290;SDS011;59073;51.994;4.448;2022-10-31T21:19:01;5.09;;;5.08;;
71290;SDS011;59073;51.994;4.448;2022-10-31T21:21:29;5.18;;;5.18;;
71290;SDS011;59073;51.994;4.448;2022-10-31T21:24:00;5.09;;;5.09;;
71290;SDS011;59073;51.994;4.448;2022-10-31T21:26:29;5.09;;;5.09;;
71290;SDS011;59073;51.994;4.448;2022-10-31T21:28:57;5.09;;;5.09;;
71290;SDS011;59073;51.994;4.448;2022-10-31T21:31:24;4.98;;;4.96;;
71290;SDS011;59073;51.994;4.448;2022-10-31T21:33:52;5.39;;;5.38;;
71290;SDS011;59073;51.994;4.448;2022-10-31T21:36:18;4.98;;;4.98;;
71290;SDS011;59073;51.994;4.448;2022-10-31T21:38:47;4.72;;;4.72;;
71290;SDS011;59073;51.994;4.448;2022-10-31T21:41:14;4.82;;;4.82;;
71290;SDS011;59073;51.994;4.448;2022-10-31T21:43:41;4.66;;;4.66;;
71290;SDS011;59073;51.994;4.448;2022-10-31T21:46:10;4.43;;;4.43;;
71290;SDS011;59073;51.994;4.448;2022-10-31T21:48:46;4.21;;;4.21;;
71290;SDS011;59073;51.994;4.448;2022-10-31T21:51:13;4.60;;;4.60;;
71290;SDS011;59073;51.994;4.448;2022-10-31T21:53:41;4.45;;;4.44;;
71290;SDS011;59073;51.994;4.448;2022-10-31T21:56:25;4.53;;;4.48;;
71290;SDS011;59073;51.994;4.448;2022-10-31T21:58:52;4.09;;;4.06;;
71290;SDS011;59073;51.994;4.448;2022-10-31T22:01:18;4.32;;;4.30;;
71290;SDS011;59073;51.994;4.448;2022-10-31T22:03:45;4.15;;;4.14;;
71290;SDS011;59073;51.994;4.448;2022-10-31T22:06:11;3.98;;;3.98;;
71290;SDS011;59073;51.994;4.448;2022-10-31T22:08:39;3.94;;;3.94;;
71290;SDS011;59073;51.994;4.448;2022-10-31T22:11:06;3.96;;;3.96;;
71290;SDS011;59073;51.994;4.448;2022-10-31T22:13:33;4.23;;;4.23;;
71290;SDS011;59073;51.994;4.448;2022-10-31T22:16:00;3.97;;;3.97;;
71290;SDS011;59073;51.994;4.448;2022-10-31T22:18:27;4.36;;;4.36;;
71290;SDS011;59073;51.994;4.448;2022-10-31T22:20:53;4.31;;;4.30;;
71290;SDS011;59073;51.994;4.448;2022-10-31T22:23:24;4.11;;;4.08;;
71290;SDS011;59073;51.994;4.448;2022-10-31T22:25:49;4.18;;;4.17;;
71290;SDS011;59073;51.994;4.448;2022-10-31T22:28:15;4.25;;;4.25;;
71290;SDS011;59073;51.994;4.448;2022-10-31T22:30:40;3.89;;;3.89;;
71290;SDS011;59073;51.994;4.448;2022-10-31T22:33:06;4.52;;;4.51;;
71290;SDS011;59073;51.994;4.448;2022-10-31T22:35:32;4.31;;;4.31;;
71290;SDS011;59073;51.994;4.448;2022-10-31T22:37:58;4.14;;;4.14;;
71290;SDS011;59073;51.994;4.448;2022-10-31T22:40:24;4.61;;;4.61;;
71290;SDS011;59073;51.994;4.448;2022-10-31T22:42:49;4.61;;;4.61;;
71290;SDS011;59073;51.994;4.448;2022-10-31T22:45:14;4.25;;;4.25;;
71290;SDS011;59073;51.994;4.448;2022-10-31T22:47:40;4.52;;;4.52;;
71290;SDS011;59073;51.994;4.448;2022-10-31T22:50:05;4.51;;;4.50;;
71290;SDS011;59073;51.994;4.448;2022-10-31T22:52:31;4.24;;;4.24;;
71290;SDS011;59073;51.994;4.448;2022-10-31T22:54:56;4.28;;;4.28;;
71290;SDS011;59073;51.994;4.448;2022-10-31T22:57:22;4.45;;;4.45;;
71290;SDS011;59073;51.994;4.448;2022-10-31T22:59:47;4.75;;;4.71;;
71290;SDS011;59073;51.994;4.448;2022-10-31T23:02:14;4.52;;;4.52;;
71290;SDS011;59073;51.994;4.448;2022-10-31T23:04:40;4.40;;;4.40;;
71290;SDS011;59073;51.994;4.448;2022-10-31T23:07:05;4.20;;;4.18;;
71290;SDS011;59073;51.994;4.448;2022-10-31T23:09:31;4.59;;;4.55;;
71290;SDS011;59073;51.994;4.448;2022-10-31T23:11:56;4.60;;;4.58;;
71290;SDS011;59073;51.994;4.448;2022-10-31T23:14:42;4.59;;;4.58;;
71290;SDS011;59073;51.994;4.448;2022-10-31T23:17:07;3.95;;;3.94;;